Yerington, NV

11:37 AM PDT on September 18, 2014 (GMT -0700)
AlpacaMine | Change Station
CLOSE
Current Station
Personal Weather Station
Location: Yerington, NV
Elevation: 4375 ft
Nearby Weather Stations

Elev 4375 ft 39.01 °N, 119.08 °W | Updated 2 minutes ago

Clear
Clear
82.2 °F
Feels Like 80 °F
N
5.8
Wind Variable Wind from NNW
Gusts 5.8 mph

Today
High -- | Low -- °F
--% Chance of Precip.
Yesterday
High -- | Low -- °F
Precip. -- in
6:40 AM 6:59 PM
Waning Crescent, 25% visible
Pressure 29.81 in
Visibility 9.0 miles
Clouds Few 6000 ft
Few 13000 ft
Heat Index 80 °F
Dew Point 41 °F
Humidity 24%
Rainfall 0.00 in
Snow Depth 0 in , 1 in , 2 in
UV 6 out of 12
Pollen 6.90 out of 12
Air Quality Not available.
Flu Activity Not available.
METAR KNFL 181756Z 01010KT 9SM FEW060 FEW130 27/04 A2988 RMK AO2 SLP094 FU VC ALQDS T02720044 10272 20128 50003

More Conditions Fewer Conditions

Pressure 29.81 in
Visibility 9.0 miles
Clouds Few 6000 ft
Few 13000 ft
Heat Index 80 °F
Dew Point 41 °F
Humidity 24%
Rainfall 0.00 in
Snow Depth 0 in , 1 in , 2 in
UV 6 out of 12
Pollen 6.90 out of 12
Air Quality Not available.
Flu Activity Not available.
METAR KNFL 181756Z 01010KT 9SM FEW060 FEW130 27/04 A2988 RMK AO2 SLP094 FU VC ALQDS T02720044 10272 20128 50003

More Conditions Fewer Conditions

10-Day Weather Forecast

Almanac

Astronomy

Sep. 18, 2014 Rise Set
Actual Time 6:40 AM PDT 6:59 PM PDT
Civil Twilight 6:13 AM PDT 7:26 PM PDT
Nautical Twilight 5:42 AM PDT 7:57 PM PDT
Astronomical Twilight 5:10 AM PDT 8:29 PM PDT
Moon 1:39 AM PDT 3:52 PM PDT
Length of Visible Light 13h 12m
Length of Day
12h 19m
Tomorrow will be 2m 30s shorter.
Waning Crescent, 25% of the Moon is Illuminated
Today
Waning Crescent
Sep 24
New
Oct 1
First Quarter
Oct 8
Full
Oct 15
Last Quarter

Today's Extremes

State Highs State Lows

Community

WunderPhotos

Upload Photos

1,754,417 photos uploaded!

WunderBlogs® & News

Nearby

Snow Depth

Station Depth Elevation
Bear Creek 0 in 7800 ft
Diamond Peak 1 in 8000 ft
Buckskin Lower 2 in 6700 ft
Granite Peak 1 in 7800 ft
Jack Creek Upper 0 in 7250 ft

Earthquake Activity

City Distance Mag. Time & Date
No recent earthquake activity has been reported nearby.
Minimum magnitude displayed is 2.5.

Coastal Water Temperatures

Place Temperature
No Stations Reporting

Nearby Weather Stations